sensor_id;sensor_type;location;lat;lon;timestamp;pressure;altitude;pressure_sealevel;temperature;humidity
7824;BME280;3957;48.61947800;9.05303100;2022-12-05T00:00:35;95798.06;;;-0.68;100.00
7824;BME280;3957;48.61947800;9.05303100;2022-12-05T00:01:56;95797.53;;;-0.72;100.00
7824;BME280;3957;48.61947800;9.05303100;2022-12-05T00:03:17;95801.66;;;-0.69;100.00
7824;BME280;3957;48.61947800;9.05303100;2022-12-05T00:04:38;95791.97;;;-0.69;100.00
7824;BME280;3957;48.61947800;9.05303100;2022-12-05T00:05:59;95785.91;;;-0.69;100.00
7824;BME280;3957;48.61947800;9.05303100;2022-12-05T00:07:19;95786.84;;;-0.60;100.00
7824;BME280;3957;48.61947800;9.05303100;2022-12-05T00:08:40;95783.91;;;-0.47;100.00
7824;BME280;3957;48.61947800;9.05303100;2022-12-05T00:10:01;95789.59;;;-0.52;100.00
7824;BME280;3957;48.61947800;9.05303100;2022-12-05T00:11:24;95786.25;;;-0.54;100.00
7824;BME280;3957;48.61947800;9.05303100;2022-12-05T00:12:45;95795.00;;;-0.54;100.00
7824;BME280;3957;48.61947800;9.05303100;2022-12-05T00:14:07;95786.56;;;-0.57;100.00
7824;BME280;3957;48.61947800;9.05303100;2022-12-05T00:15:28;95789.47;;;-0.60;100.00
7824;BME280;3957;48.61947800;9.05303100;2022-12-05T00:16:48;95783.50;;;-0.62;100.00
7824;BME280;3957;48.61947800;9.05303100;2022-12-05T00:18:09;95784.50;;;-0.63;100.00
7824;BME280;3957;48.61947800;9.05303100;2022-12-05T00:19:30;95788.78;;;-0.62;100.00
7824;BME280;3957;48.61947800;9.05303100;2022-12-05T00:20:51;95792.25;;;-0.62;100.00
7824;BME280;3957;48.61947800;9.05303100;2022-12-05T00:22:11;95793.22;;;-0.63;100.00
7824;BME280;3957;48.61947800;9.05303100;2022-12-05T00:23:32;95800.81;;;-0.60;100.00
7824;BME280;3957;48.61947800;9.05303100;2022-12-05T00:24:53;95793.06;;;-0.61;100.00
7824;BME280;3957;48.61947800;9.05303100;2022-12-05T00:26:14;95803.72;;;-0.63;100.00
7824;BME280;3957;48.61947800;9.05303100;2022-12-05T00:27:35;95810.63;;;-0.62;100.00
7824;BME280;3957;48.61947800;9.05303100;2022-12-05T00:28:57;95812.28;;;-0.61;100.00
7824;BME280;3957;48.61947800;9.05303100;2022-12-05T00:30:17;95816.56;;;-0.60;100.00
7824;BME280;3957;48.61947800;9.05303100;2022-12-05T00:31:38;95813.38;;;-0.54;100.00
7824;BME280;3957;48.61947800;9.05303100;2022-12-05T00:32:59;95806.72;;;-0.48;100.00
7824;BME280;3957;48.61947800;9.05303100;2022-12-05T00:34:20;95806.19;;;-0.52;100.00
7824;BME280;3957;48.61947800;9.05303100;2022-12-05T00:35:41;95809.78;;;-0.53;100.00
7824;BME280;3957;48.61947800;9.05303100;2022-12-05T00:37:02;95805.34;;;-0.52;100.00
7824;BME280;3957;48.61947800;9.05303100;2022-12-05T00:38:22;95811.28;;;-0.50;100.00
7824;BME280;3957;48.61947800;9.05303100;2022-12-05T00:39:43;95803.41;;;-0.50;100.00
7824;BME280;3957;48.61947800;9.05303100;2022-12-05T00:41:13;95813.22;;;-0.42;100.00
7824;BME280;3957;48.61947800;9.05303100;2022-12-05T00:42:34;95807.81;;;-0.41;100.00
7824;BME280;3957;48.61947800;9.05303100;2022-12-05T00:43:58;95803.66;;;-0.43;100.00
7824;BME280;3957;48.61947800;9.05303100;2022-12-05T00:45:19;95810.19;;;-0.47;100.00
7824;BME280;3957;48.61947800;9.05303100;2022-12-05T00:46:40;95814.03;;;-0.42;100.00
7824;BME280;3957;48.61947800;9.05303100;2022-12-05T00:48:01;95816.41;;;-0.48;100.00
7824;BME280;3957;48.61947800;9.05303100;2022-12-05T00:49:22;95826.09;;;-0.49;100.00
7824;BME280;3957;48.61947800;9.05303100;2022-12-05T00:50:42;95834.41;;;-0.54;100.00
7824;BME280;3957;48.61947800;9.05303100;2022-12-05T00:52:03;95832.47;;;-0.52;100.00
7824;BME280;3957;48.61947800;9.05303100;2022-12-05T00:53:24;95833.31;;;-0.51;100.00
7824;BME280;3957;48.61947800;9.05303100;2022-12-05T00:54:45;95831.94;;;-0.55;100.00
7824;BME280;3957;48.61947800;9.05303100;2022-12-05T00:56:10;95833.84;;;-0.57;100.00
7824;BME280;3957;48.61947800;9.05303100;2022-12-05T00:57:31;95837.88;;;-0.63;100.00
7824;BME280;3957;48.61947800;9.05303100;2022-12-05T00:58:54;95849.34;;;-0.64;100.00
7824;BME280;3957;48.61947800;9.05303100;2022-12-05T01:00:15;95848.25;;;-0.61;100.00
7824;BME280;3957;48.61947800;9.05303100;2022-12-05T01:01:38;95858.63;;;-0.60;100.00
7824;BME280;3957;48.61947800;9.05303100;2022-12-05T01:02:59;95858.31;;;-0.57;100.00
7824;BME280;3957;48.61947800;9.05303100;2022-12-05T01:04:22;95851.00;;;-0.53;100.00
7824;BME280;3957;48.61947800;9.05303100;2022-12-05T01:05:44;95852.53;;;-0.50;100.00
7824;BME280;3957;48.61947800;9.05303100;2022-12-05T01:07:04;95853.34;;;-0.50;100.00
7824;BME280;3957;48.61947800;9.05303100;2022-12-05T01:08:25;95855.97;;;-0.50;100.00
7824;BME280;3957;48.61947800;9.05303100;2022-12-05T01:09:46;95857.78;;;-0.50;100.00
7824;BME280;3957;48.61947800;9.05303100;2022-12-05T01:11:08;95853.19;;;-0.48;100.00
7824;BME280;3957;48.61947800;9.05303100;2022-12-05T01:12:29;95862.59;;;-0.46;100.00
7824;BME280;3957;48.61947800;9.05303100;2022-12-05T01:13:51;95859.31;;;-0.48;100.00
7824;BME280;3957;48.61947800;9.05303100;2022-12-05T01:15:12;95867.19;;;-0.48;100.00
7824;BME280;3957;48.61947800;9.05303100;2022-12-05T01:16:36;95863.59;;;-0.47;100.00
7824;BME280;3957;48.61947800;9.05303100;2022-12-05T01:17:57;95866.91;;;-0.45;100.00
7824;BME280;3957;48.61947800;9.05303100;2022-12-05T01:19:23;95865.09;;;-0.44;100.00
7824;BME280;3957;48.61947800;9.05303100;2022-12-05T01:20:46;95857.09;;;-0.43;100.00
7824;BME280;3957;48.61947800;9.05303100;2022-12-05T01:22:07;95846.28;;;-0.40;100.00
7824;BME280;3957;48.61947800;9.05303100;2022-12-05T01:23:28;95846.28;;;-0.40;100.00
7824;BME280;3957;48.61947800;9.05303100;2022-12-05T01:24:49;95847.94;;;-0.39;100.00
7824;BME280;3957;48.61947800;9.05303100;2022-12-05T01:26:12;95848.06;;;-0.40;100.00
7824;BME280;3957;48.61947800;9.05303100;2022-12-05T01:27:33;95855.00;;;-0.39;100.00
7824;BME280;3957;48.61947800;9.05303100;2022-12-05T01:28:54;95857.91;;;-0.42;100.00
7824;BME280;3957;48.61947800;9.05303100;2022-12-05T01:30:15;95858.72;;;-0.42;100.00
7824;BME280;3957;48.61947800;9.05303100;2022-12-05T01:31:36;95860.81;;;-0.45;100.00
7824;BME280;3957;48.61947800;9.05303100;2022-12-05T01:32:58;95869.25;;;-0.42;100.00
7824;BME280;3957;48.61947800;9.05303100;2022-12-05T01:34:19;95867.16;;;-0.38;100.00
7824;BME280;3957;48.61947800;9.05303100;2022-12-05T01:35:40;95876.88;;;-0.39;100.00
7824;BME280;3957;48.61947800;9.05303100;2022-12-05T01:37:01;95875.06;;;-0.38;100.00
7824;BME280;3957;48.61947800;9.05303100;2022-12-05T01:38:22;95874.75;;;-0.35;100.00
7824;BME280;3957;48.61947800;9.05303100;2022-12-05T01:39:43;95875.88;;;-0.38;100.00
7824;BME280;3957;48.61947800;9.05303100;2022-12-05T01:41:05;95877.69;;;-0.38;100.00
7824;BME280;3957;48.61947800;9.05303100;2022-12-05T01:42:26;95877.69;;;-0.38;100.00
7824;BME280;3957;48.61947800;9.05303100;2022-12-05T01:45:39;95878.66;;;-0.39;100.00
7824;BME280;3957;48.61947800;9.05303100;2022-12-05T01:47:00;95870.75;;;-0.39;100.00
7824;BME280;3957;48.61947800;9.05303100;2022-12-05T01:48:29;95867.16;;;-0.38;100.00
7824;BME280;3957;48.61947800;9.05303100;2022-12-05T01:49:52;95861.78;;;-0.37;100.00
7824;BME280;3957;48.61947800;9.05303100;2022-12-05T01:51:13;95869.94;;;-0.40;100.00
7824;BME280;3957;48.61947800;9.05303100;2022-12-05T01:52:35;95869.81;;;-0.38;100.00
7824;BME280;3957;48.61947800;9.05303100;2022-12-05T01:53:56;95876.44;;;-0.44;100.00
7824;BME280;3957;48.61947800;9.05303100;2022-12-05T01:55:17;95870.22;;;-0.43;100.00
7824;BME280;3957;48.61947800;9.05303100;2022-12-05T01:56:41;95874.50;;;-0.42;100.00
7824;BME280;3957;48.61947800;9.05303100;2022-12-05T01:58:04;95885.56;;;-0.38;100.00
7824;BME280;3957;48.61947800;9.05303100;2022-12-05T01:59:27;95890.00;;;-0.39;100.00
7824;BME280;3957;48.61947800;9.05303100;2022-12-05T02:00:49;95891.50;;;-0.36;100.00
7824;BME280;3957;48.61947800;9.05303100;2022-12-05T02:02:11;95878.34;;;-0.36;100.00
7824;BME280;3957;48.61947800;9.05303100;2022-12-05T02:03:32;95888.19;;;-0.38;100.00
7824;BME280;3957;48.61947800;9.05303100;2022-12-05T02:05:01;95897.06;;;-0.39;100.00
7824;BME280;3957;48.61947800;9.05303100;2022-12-05T02:06:24;95897.75;;;-0.37;100.00
7824;BME280;3957;48.61947800;9.05303100;2022-12-05T02:07:46;95902.88;;;-0.36;100.00
7824;BME280;3957;48.61947800;9.05303100;2022-12-05T02:09:07;95900.25;;;-0.36;100.00
7824;BME280;3957;48.61947800;9.05303100;2022-12-05T02:10:32;95900.38;;;-0.37;100.00
7824;BME280;3957;48.61947800;9.05303100;2022-12-05T02:11:57;95899.38;;;-0.36;100.00
7824;BME280;3957;48.61947800;9.05303100;2022-12-05T02:15:09;95898.72;;;-0.38;100.00
7824;BME280;3957;48.61947800;9.05303100;2022-12-05T02:21:52;95920.84;;;-0.31;100.00
7824;BME280;3957;48.61947800;9.05303100;2022-12-05T02:26:47;95923.31;;;-0.29;100.00
7824;BME280;3957;48.61947800;9.05303100;2022-12-05T02:30:10;95925.44;;;-0.33;100.00
7824;BME280;3957;48.61947800;9.05303100;2022-12-05T02:33:23;95935.09;;;-0.33;100.00
7824;BME280;3957;48.61947800;9.05303100;2022-12-05T02:35:00;95934.28;;;-0.34;100.00
7824;BME280;3957;48.61947800;9.05303100;2022-12-05T02:39:50;95928.88;;;-0.32;100.00
7824;BME280;3957;48.61947800;9.05303100;2022-12-05T02:41:16;95938.44;;;-0.31;100.00
7824;BME280;3957;48.61947800;9.05303100;2022-12-05T02:42:48;95938.13;;;-0.28;100.00
7824;BME280;3957;48.61947800;9.05303100;2022-12-05T02:44:15;95938.00;;;-0.27;100.00
7824;BME280;3957;48.61947800;9.05303100;2022-12-05T02:45:40;95934.25;;;-0.24;100.00
7824;BME280;3957;48.61947800;9.05303100;2022-12-05T02:47:05;95931.19;;;-0.20;100.00
7824;BME280;3957;48.61947800;9.05303100;2022-12-05T02:48:27;95934.69;;;-0.19;100.00
7824;BME280;3957;48.61947800;9.05303100;2022-12-05T02:49:49;95918.47;;;-0.14;100.00
7824;BME280;3957;48.61947800;9.05303100;2022-12-05T02:51:13;95914.16;;;-0.15;100.00
7824;BME280;3957;48.61947800;9.05303100;2022-12-05T02:52:36;95913.19;;;-0.14;100.00
7824;BME280;3957;48.61947800;9.05303100;2022-12-05T02:54:00;95909.31;;;-0.10;100.00
7824;BME280;3957;48.61947800;9.05303100;2022-12-05T02:55:23;95904.63;;;-0.07;100.00
7824;BME280;3957;48.61947800;9.05303100;2022-12-05T02:56:48;95902.66;;;-0.05;100.00
7824;BME280;3957;48.61947800;9.05303100;2022-12-05T02:58:31;95907.50;;;0.00;100.00
7824;BME280;3957;48.61947800;9.05303100;2022-12-05T02:59:53;95913.44;;;0.02;100.00
7824;BME280;3957;48.61947800;9.05303100;2022-12-05T03:01:14;95912.63;;;0.02;100.00
7824;BME280;3957;48.61947800;9.05303100;2022-12-05T03:02:38;95914.56;;;-0.01;100.00
7824;BME280;3957;48.61947800;9.05303100;2022-12-05T03:04:02;95898.34;;;0.04;100.00
7824;BME280;3957;48.61947800;9.05303100;2022-12-05T03:05:53;95885.06;;;0.06;100.00
7824;BME280;3957;48.61947800;9.05303100;2022-12-05T03:07:18;95896.25;;;0.08;100.00
7824;BME280;3957;48.61947800;9.05303100;2022-12-05T03:08:53;95907.88;;;0.05;100.00
7824;BME280;3957;48.61947800;9.05303100;2022-12-05T03:10:18;95913.44;;;0.02;100.00
7824;BME280;3957;48.61947800;9.05303100;2022-12-05T03:11:49;95916.06;;;0.02;100.00
7824;BME280;3957;48.61947800;9.05303100;2022-12-05T03:13:14;95919.66;;;0.01;100.00
7824;BME280;3957;48.61947800;9.05303100;2022-12-05T03:14:41;95930.91;;;0.03;100.00
7824;BME280;3957;48.61947800;9.05303100;2022-12-05T03:16:10;95931.03;;;0.02;100.00
7824;BME280;3957;48.61947800;9.05303100;2022-12-05T03:17:46;95928.56;;;0.00;100.00
7824;BME280;3957;48.61947800;9.05303100;2022-12-05T03:19:15;95926.16;;;0.07;100.00
7824;BME280;3957;48.61947800;9.05303100;2022-12-05T03:22:48;95931.03;;;0.02;100.00
7824;BME280;3957;48.61947800;9.05303100;2022-12-05T03:24:12;95919.66;;;0.01;100.00
7824;BME280;3957;48.61947800;9.05303100;2022-12-05T03:25:39;95924.78;;;0.03;100.00
7824;BME280;3957;48.61947800;9.05303100;2022-12-05T03:27:26;95917.34;;;-0.02;100.00
7824;BME280;3957;48.61947800;9.05303100;2022-12-05T03:30:16;95912.06;;;-0.02;100.00
7824;BME280;3957;48.61947800;9.05303100;2022-12-05T03:31:51;95905.16;;;-0.03;100.00
7824;BME280;3957;48.61947800;9.05303100;2022-12-05T03:33:20;95910.84;;;-0.08;100.00
7824;BME280;3957;48.61947800;9.05303100;2022-12-05T03:34:48;95911.53;;;-0.15;100.00
7824;BME280;3957;48.61947800;9.05303100;2022-12-05T03:36:14;95913.63;;;-0.19;100.00
7824;BME280;3957;48.61947800;9.05303100;2022-12-05T03:39:17;95907.25;;;-0.26;100.00
7824;BME280;3957;48.61947800;9.05303100;2022-12-05T03:40:45;95896.75;;;-0.26;100.00
7824;BME280;3957;48.61947800;9.05303100;2022-12-05T03:42:12;95903.69;;;-0.35;100.00
7824;BME280;3957;48.61947800;9.05303100;2022-12-05T03:45:24;95906.75;;;-0.49;100.00
7824;BME280;3957;48.61947800;9.05303100;2022-12-05T03:46:55;95906.91;;;-0.51;100.00
7824;BME280;3957;48.61947800;9.05303100;2022-12-05T03:48:35;95914.38;;;-0.56;100.00
7824;BME280;3957;48.61947800;9.05303100;2022-12-05T03:50:02;95909.25;;;-0.58;100.00
7824;BME280;3957;48.61947800;9.05303100;2022-12-05T03:51:37;95908.41;;;-0.58;100.00
7824;BME280;3957;48.61947800;9.05303100;2022-12-05T03:53:04;95901.22;;;-0.56;100.00
7824;BME280;3957;48.61947800;9.05303100;2022-12-05T03:54:33;95906.91;;;-0.51;100.00
7824;BME280;3957;48.61947800;9.05303100;2022-12-05T03:56:10;95896.25;;;-0.49;100.00
7824;BME280;3957;48.61947800;9.05303100;2022-12-05T03:57:45;95898.03;;;-0.50;100.00
7824;BME280;3957;48.61947800;9.05303100;2022-12-05T03:59:15;95907.16;;;-0.54;100.00
7824;BME280;3957;48.61947800;9.05303100;2022-12-05T04:00:40;95908.25;;;-0.57;100.00
7824;BME280;3957;48.61947800;9.05303100;2022-12-05T04:02:10;95904.41;;;-0.62;100.00
7824;BME280;3957;48.61947800;9.05303100;2022-12-05T04:03:59;95911.75;;;-0.66;100.00
7824;BME280;3957;48.61947800;9.05303100;2022-12-05T04:07:03;95912.28;;;-0.72;100.00
7824;BME280;3957;48.61947800;9.05303100;2022-12-05T04:08:28;95923.78;;;-0.73;100.00
7824;BME280;3957;48.61947800;9.05303100;2022-12-05T04:09:55;95923.88;;;-0.75;100.00
7824;BME280;3957;48.61947800;9.05303100;2022-12-05T04:11:20;95929.28;;;-0.76;100.00
7824;BME280;3957;48.61947800;9.05303100;2022-12-05T04:12:43;95924.88;;;-0.76;100.00
7824;BME280;3957;48.61947800;9.05303100;2022-12-05T04:14:12;95914.50;;;-0.77;100.00
7824;BME280;3957;48.61947800;9.05303100;2022-12-05T04:15:34;95918.38;;;-0.72;100.00
7824;BME280;3957;48.61947800;9.05303100;2022-12-05T04:17:39;95913.28;;;-0.73;100.00
7824;BME280;3957;48.61947800;9.05303100;2022-12-05T04:19:10;95919.91;;;-0.69;100.00
7824;BME280;3957;48.61947800;9.05303100;2022-12-05T04:20:36;95913.94;;;-0.71;100.00
7824;BME280;3957;48.61947800;9.05303100;2022-12-05T04:22:18;95923.78;;;-0.73;100.00
7824;BME280;3957;48.61947800;9.05303100;2022-12-05T04:23:39;95924.88;;;-0.76;100.00
7824;BME280;3957;48.61947800;9.05303100;2022-12-05T04:25:03;95920.72;;;-0.78;100.00
7824;BME280;3957;48.61947800;9.05303100;2022-12-05T04:26:47;95918.63;;;-0.84;100.00
7824;BME280;3957;48.61947800;9.05303100;2022-12-05T04:28:33;95922.94;;;-0.83;100.00
7824;BME280;3957;48.61947800;9.05303100;2022-12-05T04:30:20;95923.22;;;-0.87;100.00
7824;BME280;3957;48.61947800;9.05303100;2022-12-05T04:31:43;95931.22;;;-0.88;100.00
7824;BME280;3957;48.61947800;9.05303100;2022-12-05T04:33:15;95926.50;;;-0.84;100.00
7824;BME280;3957;48.61947800;9.05303100;2022-12-05T04:34:37;95927.50;;;-0.86;100.00
7824;BME280;3957;48.61947800;9.05303100;2022-12-05T04:37:24;95931.09;;;-0.87;100.00
7824;BME280;3957;48.61947800;9.05303100;2022-12-05T04:38:51;95928.59;;;-0.88;100.00
7824;BME280;3957;48.61947800;9.05303100;2022-12-05T04:40:22;95928.59;;;-0.88;100.00
7824;BME280;3957;48.61947800;9.05303100;2022-12-05T04:41:57;95928.19;;;-0.93;100.00
7824;BME280;3957;48.61947800;9.05303100;2022-12-05T04:43:20;95929.28;;;-0.96;100.00
7824;BME280;3957;48.61947800;9.05303100;2022-12-05T04:45:02;95933.28;;;-1.01;100.00
7824;BME280;3957;48.61947800;9.05303100;2022-12-05T04:46:24;95939.91;;;-1.07;100.00
7824;BME280;3957;48.61947800;9.05303100;2022-12-05T04:47:50;95949.59;;;-1.08;100.00
7824;BME280;3957;48.61947800;9.05303100;2022-12-05T04:49:18;95947.22;;;-1.11;100.00
7824;BME280;3957;48.61947800;9.05303100;2022-12-05T04:50:41;95943.63;;;-1.00;100.00
7824;BME280;3957;48.61947800;9.05303100;2022-12-05T04:52:08;95947.22;;;-1.01;100.00
7824;BME280;3957;48.61947800;9.05303100;2022-12-05T04:53:31;95938.38;;;-1.00;100.00
7824;BME280;3957;48.61947800;9.05303100;2022-12-05T04:54:58;95937.72;;;-0.92;100.00
7824;BME280;3957;48.61947800;9.05303100;2022-12-05T04:56:25;95938.03;;;-0.76;100.00
7824;BME280;3957;48.61947800;9.05303100;2022-12-05T04:58:00;95945.19;;;-0.68;100.00
7824;BME280;3957;48.61947800;9.05303100;2022-12-05T04:59:22;95944.81;;;-0.63;100.00
7824;BME280;3957;48.61947800;9.05303100;2022-12-05T05:01:08;95940.94;;;-0.59;100.00
7824;BME280;3957;48.61947800;9.05303100;2022-12-05T05:02:35;95940.22;;;-0.52;100.00
7824;BME280;3957;48.61947800;9.05303100;2022-12-05T05:04:07;95947.97;;;-0.50;100.00
7824;BME280;3957;48.61947800;9.05303100;2022-12-05T05:05:29;95946.19;;;-0.49;100.00
7824;BME280;3957;48.61947800;9.05303100;2022-12-05T05:06:52;95938.69;;;-0.44;100.00
7824;BME280;3957;48.61947800;9.05303100;2022-12-05T05:08:18;95942.84;;;-0.42;100.00
7824;BME280;3957;48.61947800;9.05303100;2022-12-05T05:09:39;95939.25;;;-0.41;100.00
7824;BME280;3957;48.61947800;9.05303100;2022-12-05T05:11:30;95949.47;;;-0.38;100.00
7824;BME280;3957;48.61947800;9.05303100;2022-12-05T05:12:52;95952.69;;;-0.34;100.00
7824;BME280;3957;48.61947800;9.05303100;2022-12-05T05:14:13;95960.41;;;-0.32;100.00
7824;BME280;3957;48.61947800;9.05303100;2022-12-05T05:15:33;95961.25;;;-0.32;100.00
7824;BME280;3957;48.61947800;9.05303100;2022-12-05T05:16:54;95968.88;;;-0.29;100.00
7824;BME280;3957;48.61947800;9.05303100;2022-12-05T05:18:15;95964.44;;;-0.28;100.00
7824;BME280;3957;48.61947800;9.05303100;2022-12-05T05:19:36;95968.97;;;-0.30;100.00
7824;BME280;3957;48.61947800;9.05303100;2022-12-05T05:20:57;95970.38;;;-0.26;100.00
7824;BME280;3957;48.61947800;9.05303100;2022-12-05T05:22:17;95972.88;;;-0.25;100.00
7824;BME280;3957;48.61947800;9.05303100;2022-12-05T05:23:38;95961.81;;;-0.28;100.00
7824;BME280;3957;48.61947800;9.05303100;2022-12-05T05:24:59;95965.38;;;-0.20;100.00
7824;BME280;3957;48.61947800;9.05303100;2022-12-05T05:26:21;95965.81;;;-0.24;100.00
7824;BME280;3957;48.61947800;9.05303100;2022-12-05T05:27:42;95971.75;;;-0.22;100.00
7824;BME280;3957;48.61947800;9.05303100;2022-12-05T05:29:03;95965.81;;;-0.24;100.00
7824;BME280;3957;48.61947800;9.05303100;2022-12-05T05:30:24;95970.66;;;-0.20;100.00
7824;BME280;3957;48.61947800;9.05303100;2022-12-05T05:31:45;95969.13;;;-0.22;100.00
7824;BME280;3957;48.61947800;9.05303100;2022-12-05T05:33:06;95978.53;;;-0.20;100.00
7824;BME280;3957;48.61947800;9.05303100;2022-12-05T05:34:26;95981.00;;;-0.18;100.00
7824;BME280;3957;48.61947800;9.05303100;2022-12-05T05:35:48;95977.84;;;-0.22;100.00
7824;BME280;3957;48.61947800;9.05303100;2022-12-05T05:37:08;95983.38;;;-0.15;100.00
7824;BME280;3957;48.61947800;9.05303100;2022-12-05T05:38:29;95980.91;;;-0.16;100.00
7824;BME280;3957;48.61947800;9.05303100;2022-12-05T05:39:50;95982.00;;;-0.19;100.00
7824;BME280;3957;48.61947800;9.05303100;2022-12-05T05:41:13;95979.25;;;-0.18;100.00
7824;BME280;3957;48.61947800;9.05303100;2022-12-05T05:42:34;95994.06;;;-0.16;100.00
7824;BME280;3957;48.61947800;9.05303100;2022-12-05T05:43:55;95983.25;;;-0.13;100.00
7824;BME280;3957;48.61947800;9.05303100;2022-12-05T05:45:16;95978.25;;;-0.07;100.00
7824;BME280;3957;48.61947800;9.05303100;2022-12-05T05:46:37;95980.47;;;-0.02;100.00
7824;BME280;3957;48.61947800;9.05303100;2022-12-05T05:47:58;95984.75;;;-0.01;100.00
7824;BME280;3957;48.61947800;9.05303100;2022-12-05T05:49:18;95987.38;;;-0.01;100.00
7824;BME280;3957;48.61947800;9.05303100;2022-12-05T05:50:39;95988.06;;;0.01;100.00
7824;BME280;3957;48.61947800;9.05303100;2022-12-05T05:52:04;95981.16;;;0.00;100.00
7824;BME280;3957;48.61947800;9.05303100;2022-12-05T05:53:25;95984.47;;;0.02;100.00
7824;BME280;3957;48.61947800;9.05303100;2022-12-05T05:54:46;95980.19;;;0.01;100.00
7824;BME280;3957;48.61947800;9.05303100;2022-12-05T05:56:13;95981.84;;;0.02;100.00
7824;BME280;3957;48.61947800;9.05303100;2022-12-05T05:57:35;95981.97;;;0.01;100.00
7824;BME280;3957;48.61947800;9.05303100;2022-12-05T05:59:00;95980.47;;;-0.02;100.00
7824;BME280;3957;48.61947800;9.05303100;2022-12-05T06:00:21;95984.63;;;0.01;100.00
7824;BME280;3957;48.61947800;9.05303100;2022-12-05T06:01:42;95983.09;;;-0.02;100.00
7824;BME280;3957;48.61947800;9.05303100;2022-12-05T06:03:03;95984.75;;;-0.01;100.00
7824;BME280;3957;48.61947800;9.05303100;2022-12-05T06:04:24;95985.56;;;-0.01;100.00
7824;BME280;3957;48.61947800;9.05303100;2022-12-05T06:05:55;95988.22;;;-0.01;100.00
7824;BME280;3957;48.61947800;9.05303100;2022-12-05T06:07:16;95986.44;;;0.00;100.00
7824;BME280;3957;48.61947800;9.05303100;2022-12-05T06:08:38;95995.13;;;0.01;100.00
7824;BME280;3957;48.61947800;9.05303100;2022-12-05T06:10:00;96004.94;;;-0.02;100.00
7824;BME280;3957;48.61947800;9.05303100;2022-12-05T06:11:23;96008.72;;;-0.04;100.00
7824;BME280;3957;48.61947800;9.05303100;2022-12-05T06:12:44;96009.69;;;-0.05;100.00
7824;BME280;3957;48.61947800;9.05303100;2022-12-05T06:14:05;96015.34;;;-0.10;100.00
7824;BME280;3957;48.61947800;9.05303100;2022-12-05T06:15:25;96020.06;;;-0.13;100.00
7824;BME280;3957;48.61947800;9.05303100;2022-12-05T06:16:46;96021.59;;;-0.01;100.00
7824;BME280;3957;48.61947800;9.05303100;2022-12-05T06:18:07;96022.84;;;-0.05;100.00
7824;BME280;3957;48.61947800;9.05303100;2022-12-05T06:19:28;96017.00;;;0.01;100.00
7824;BME280;3957;48.61947800;9.05303100;2022-12-05T06:20:52;96014.38;;;0.01;100.00
7824;BME280;3957;48.61947800;9.05303100;2022-12-05T06:22:13;96021.31;;;0.02;100.00
7824;BME280;3957;48.61947800;9.05303100;2022-12-05T06:23:35;96017.56;;;0.05;100.00
7824;BME280;3957;48.61947800;9.05303100;2022-12-05T06:24:57;96020.19;;;0.05;100.00
7824;BME280;3957;48.61947800;9.05303100;2022-12-05T06:26:19;96021.44;;;0.10;100.00
7824;BME280;3957;48.61947800;9.05303100;2022-12-05T06:27:40;96019.22;;;0.06;100.00
7824;BME280;3957;48.61947800;9.05303100;2022-12-05T06:29:00;96021.16;;;0.13;100.00
7824;BME280;3957;48.61947800;9.05303100;2022-12-05T06:30:21;96025.59;;;0.13;100.00
7824;BME280;3957;48.61947800;9.05303100;2022-12-05T06:31:42;96031.38;;;0.16;100.00
7824;BME280;3957;48.61947800;9.05303100;2022-12-05T06:33:03;96025.03;;;0.09;100.00
7824;BME280;3957;48.61947800;9.05303100;2022-12-05T06:34:23;96030.72;;;0.05;100.00
7824;BME280;3957;48.61947800;9.05303100;2022-12-05T06:35:44;96036.25;;;0.02;100.00
7824;BME280;3957;48.61947800;9.05303100;2022-12-05T06:37:05;96035.03;;;0.06;100.00
7824;BME280;3957;48.61947800;9.05303100;2022-12-05T06:38:26;96033.63;;;0.11;100.00
7824;BME280;3957;48.61947800;9.05303100;2022-12-05T06:39:47;96036.81;;;0.05;100.00
7824;BME280;3957;48.61947800;9.05303100;2022-12-05T06:41:10;96030.56;;;0.06;100.00
7824;BME280;3957;48.61947800;9.05303100;2022-12-05T06:42:31;96035.56;;;0.09;100.00
7824;BME280;3957;48.61947800;9.05303100;2022-12-05T06:43:53;96029.88;;;0.04;100.00
7824;BME280;3957;48.61947800;9.05303100;2022-12-05T06:45:14;96028.38;;;0.02;100.00
7824;BME280;3957;48.61947800;9.05303100;2022-12-05T06:46:35;96027.94;;;0.06;100.00
7824;BME280;3957;48.61947800;9.05303100;2022-12-05T06:47:56;96036.13;;;0.03;100.00
7824;BME280;3957;48.61947800;9.05303100;2022-12-05T06:49:16;96029.19;;;0.02;100.00
7824;BME280;3957;48.61947800;9.05303100;2022-12-05T06:50:37;96033.50;;;0.03;100.00
7824;BME280;3957;48.61947800;9.05303100;2022-12-05T06:51:58;96039.44;;;0.05;100.00
7824;BME280;3957;48.61947800;9.05303100;2022-12-05T06:53:19;96035.69;;;0.08;100.00
7824;BME280;3957;48.61947800;9.05303100;2022-12-05T06:54:40;96031.00;;;0.11;100.00
7824;BME280;3957;48.61947800;9.05303100;2022-12-05T06:56:03;96027.94;;;0.16;100.00
7824;BME280;3957;48.61947800;9.05303100;2022-12-05T06:57:27;96029.44;;;0.19;100.00
7824;BME280;3957;48.61947800;9.05303100;2022-12-05T06:58:48;96035.94;;;0.24;100.00
7824;BME280;3957;48.61947800;9.05303100;2022-12-05T07:00:12;96034.84;;;0.27;100.00
7824;BME280;3957;48.61947800;9.05303100;2022-12-05T07:01:52;96039.53;;;0.33;100.00
7824;BME280;3957;48.61947800;9.05303100;2022-12-05T07:03:12;96045.50;;;0.35;100.00
7824;BME280;3957;48.61947800;9.05303100;2022-12-05T07:04:33;96054.06;;;0.37;100.00
7824;BME280;3957;48.61947800;9.05303100;2022-12-05T07:05:54;96063.50;;;0.40;100.00
7824;BME280;3957;48.61947800;9.05303100;2022-12-05T07:07:15;96068.34;;;0.44;100.00
7824;BME280;3957;48.61947800;9.05303100;2022-12-05T07:08:35;96062.09;;;0.45;100.00
7824;BME280;3957;48.61947800;9.05303100;2022-12-05T07:09:58;96072.22;;;0.50;100.00